createdAt,value
2019-04-20T00:00:23.405Z,1022.26
2019-04-20T00:01:28.426Z,1022.26
2019-04-20T00:02:24.063Z,1022.24
2019-04-20T00:03:29.812Z,1022.28
2019-04-20T00:04:28.765Z,1022.25
2019-04-20T00:05:23.546Z,1022.21
2019-04-20T00:06:24.889Z,1022.20
2019-04-20T00:07:28.558Z,1022.21
2019-04-20T00:08:27.955Z,1022.20
2019-04-20T00:09:26.583Z,1022.22
2019-04-20T00:10:24.686Z,1022.18
2019-04-20T00:11:29.456Z,1022.16
2019-04-20T00:12:39.980Z,1022.22
2019-04-20T00:13:34.590Z,1022.23
2019-04-20T00:14:27.655Z,1022.19
2019-04-20T00:15:24.065Z,1022.22
2019-04-20T00:16:25.053Z,1022.16
2019-04-20T00:17:25.038Z,1022.16
2019-04-20T00:18:26.871Z,1022.17
2019-04-20T00:19:33.707Z,1022.17
2019-04-20T00:20:28.728Z,1022.11
2019-04-20T00:21:24.717Z,1022.16
2019-04-20T00:22:31.410Z,1022.13
2019-04-20T00:23:29.522Z,1022.11
2019-04-20T00:24:30.165Z,1022.14
2019-04-20T00:25:32.865Z,1022.15
2019-04-20T00:26:51.086Z,1022.13
2019-04-20T00:27:44.299Z,1022.15
2019-04-20T00:28:45.667Z,1022.09
2019-04-20T00:29:40.475Z,1022.12
2019-04-20T00:30:43.489Z,1022.14
2019-04-20T00:31:40.227Z,1022.10
2019-04-20T00:32:41.310Z,1022.07
2019-04-20T00:33:38.860Z,1022.11
2019-04-20T00:34:30.015Z,1022.04
2019-04-20T00:35:25.130Z,1022.07
2019-04-20T00:36:24.421Z,1022.05
2019-04-20T00:37:25.358Z,1022.03
2019-04-20T00:38:27.071Z,1022.03
2019-04-20T00:39:25.767Z,1022.03
2019-04-20T00:40:25.635Z,1021.97
2019-04-20T00:41:25.750Z,1022.02
2019-04-20T00:42:33.097Z,1022.02
2019-04-20T00:43:30.397Z,1022.02
2019-04-20T00:44:31.924Z,1022.01
2019-04-20T00:45:29.600Z,1022.02
2019-04-20T00:46:32.934Z,1022.03
2019-04-20T00:47:37.303Z,1022.02
2019-04-20T00:48:33.809Z,1022.01
2019-04-20T00:49:41.316Z,1022.01
2019-04-20T00:50:41.786Z,1021.98
2019-04-20T00:51:39.439Z,1022.01
2019-04-20T00:52:41.127Z,1022.04
2019-04-20T00:53:31.369Z,1022.06
2019-04-20T00:54:26.276Z,1022.04
2019-04-20T00:55:25.249Z,1022.04
2019-04-20T00:56:24.963Z,1022.03
2019-04-20T00:57:39.371Z,1021.99
2019-04-20T00:58:33.574Z,1022.00
2019-04-20T00:59:36.917Z,1022.01
2019-04-20T01:00:40.741Z,1022.02
2019-04-20T01:01:47.453Z,1022.04
2019-04-20T01:02:37.043Z,1022.05
2019-04-20T01:03:39.360Z,1022.03
2019-04-20T01:04:45.978Z,1022.05
2019-04-20T01:05:46.395Z,1022.02
2019-04-20T01:06:42.496Z,1022.05
2019-04-20T01:07:37.127Z,1022.06
2019-04-20T01:08:25.536Z,1022.06
2019-04-20T01:09:26.494Z,1022.05
2019-04-20T01:10:30.307Z,1022.05
2019-04-20T01:11:30.848Z,1022.03
2019-04-20T01:13:26.865Z,1022.09
2019-04-20T01:14:36.402Z,1022.03
2019-04-20T01:15:36.698Z,1022.03
2019-04-20T01:16:36.539Z,1022.02
2019-04-20T01:17:25.563Z,1022.08
2019-04-20T01:18:25.583Z,1022.06
2019-04-20T01:19:25.599Z,1022.08
2019-04-20T01:20:26.403Z,1022.05
2019-04-20T01:21:28.806Z,1022.07
2019-04-20T01:22:28.326Z,1022.09
2019-04-20T01:23:35.562Z,1022.09
2019-04-20T01:26:01.261Z,1022.09
2019-04-20T01:26:58.460Z,1022.13
2019-04-20T01:28:10.249Z,1022.11
2019-04-20T01:29:06.762Z,1022.07
2019-04-20T01:30:06.383Z,1022.11
2019-04-20T01:31:06.193Z,1022.09
2019-04-20T01:32:08.052Z,1022.11
2019-04-20T01:33:08.935Z,1022.16
2019-04-20T01:34:03.127Z,1022.19
2019-04-20T01:35:05.900Z,1022.11
2019-04-20T01:36:14.794Z,1022.12
2019-04-20T01:37:09.553Z,1022.18
2019-04-20T01:38:13.948Z,1022.17
2019-04-20T01:39:09.207Z,1022.13
2019-04-20T01:39:57.614Z,1022.13
2019-04-20T01:40:55.042Z,1022.14
2019-04-20T01:41:54.073Z,1022.12
2019-04-20T01:42:55.237Z,1022.12
2019-04-20T01:43:54.377Z,1022.14
2019-04-20T01:44:55.691Z,1022.09
2019-04-20T01:46:01.366Z,1022.10
2019-04-20T01:46:58.792Z,1022.13
2019-04-20T01:47:56.236Z,1022.16
2019-04-20T01:48:54.822Z,1022.17
2019-04-20T01:50:02.721Z,1022.13
2019-04-20T01:51:06.587Z,1022.12
2019-04-20T01:52:03.979Z,1022.07
2019-04-20T01:53:06.892Z,1022.10
2019-04-20T01:54:06.710Z,1022.10
2019-04-20T01:55:11.462Z,1022.11
2019-04-20T01:56:13.986Z,1022.14
2019-04-20T01:57:06.056Z,1022.14
2019-04-20T01:58:12.195Z,1022.16
2019-04-20T01:59:10.277Z,1022.17
2019-04-20T02:00:03.638Z,1022.17
2019-04-20T02:00:56.368Z,1022.15
2019-04-20T02:01:59.218Z,1022.16
2019-04-20T02:02:59.487Z,1022.14
2019-04-20T02:03:57.180Z,1022.12
2019-04-20T02:04:59.688Z,1022.19
2019-04-20T02:06:01.832Z,1022.13
2019-04-20T02:06:58.752Z,1022.14
2019-04-20T02:07:55.850Z,1022.14
2019-04-20T02:09:00.335Z,1022.17
2019-04-20T02:09:59.841Z,1022.17
2019-04-20T02:11:00.112Z,1022.17
2019-04-20T02:11:55.705Z,1022.17
2019-04-20T02:12:59.760Z,1022.20
2019-04-20T02:13:58.794Z,1022.16
2019-04-20T02:14:59.443Z,1022.19
2019-04-20T02:15:59.026Z,1022.16
2019-04-20T02:17:04.518Z,1022.20
2019-04-20T02:18:11.385Z,1022.19
2019-04-20T02:19:09.270Z,1022.18
2019-04-20T02:20:17.054Z,1022.19
2019-04-20T02:21:18.350Z,1022.19
2019-04-20T02:22:08.844Z,1022.17
2019-04-20T02:23:07.418Z,1022.20
2019-04-20T02:24:00.791Z,1022.18
2019-04-20T02:24:55.188Z,1022.18
2019-04-20T02:25:55.058Z,1022.20
2019-04-20T02:26:55.689Z,1022.23
2019-04-20T02:28:13.793Z,1022.22
2019-04-20T02:29:17.524Z,1022.18
2019-04-20T02:30:21.843Z,1022.20
2019-04-20T02:31:32.674Z,1022.21
2019-04-20T02:32:23.226Z,1022.20
2019-04-20T02:33:37.558Z,1022.25
2019-04-20T02:34:33.207Z,1022.19
2019-04-20T02:35:28.397Z,1022.23
2019-04-20T02:36:40.335Z,1022.22
2019-04-20T02:37:45.082Z,1022.27
2019-04-20T02:38:46.570Z,1022.24
2019-04-20T02:41:31.577Z,1022.28
2019-04-20T02:42:34.670Z,1022.21
2019-04-20T02:43:39.851Z,1022.28
2019-04-20T02:44:34.032Z,1022.23
2019-04-20T02:46:33.446Z,1022.28
2019-04-20T02:47:30.638Z,1022.29
2019-04-20T02:48:25.332Z,1022.27
2019-04-20T02:49:40.299Z,1022.29
2019-04-20T02:50:30.527Z,1022.28
2019-04-20T02:51:33.438Z,1022.29
2019-04-20T02:52:40.447Z,1022.32
2019-04-20T02:53:30.773Z,1022.32
2019-04-20T02:54:36.993Z,1022.27
2019-04-20T02:55:35.805Z,1022.31
2019-04-20T02:56:32.578Z,1022.31
2019-04-20T02:57:51.036Z,1022.27
2019-04-20T02:58:23.602Z,1022.30
2019-04-20T02:59:54.082Z,1022.28
2019-04-20T03:00:25.130Z,1022.30
2019-04-20T03:01:14.913Z,1022.32
2019-04-20T03:02:14.746Z,1022.34
2019-04-20T03:03:09.013Z,1022.32
2019-04-20T03:04:01.386Z,1022.29
2019-04-20T03:05:10.254Z,1022.27
2019-04-20T03:06:08.513Z,1022.27
2019-04-20T03:07:13.166Z,1022.21
2019-04-20T03:08:13.780Z,1022.24
2019-04-20T03:09:22.537Z,1022.25
2019-04-20T03:10:11.282Z,1022.20
2019-04-20T03:11:20.883Z,1022.26
2019-04-20T03:12:23.627Z,1022.23
2019-04-20T03:13:18.805Z,1022.22
2019-04-20T03:14:13.940Z,1022.23
2019-04-20T03:15:20.211Z,1022.27
2019-04-20T03:16:16.681Z,1022.25
2019-04-20T03:17:25.261Z,1022.25
2019-04-20T03:18:13.616Z,1022.22
2019-04-20T03:19:14.130Z,1022.24
2019-04-20T03:20:19.960Z,1022.27
2019-04-20T03:21:21.282Z,1022.24
2019-04-20T03:22:24.493Z,1022.24
2019-04-20T03:23:35.871Z,1022.23
2019-04-20T03:24:26.604Z,1022.22
2019-04-20T03:25:18.705Z,1022.21
2019-04-20T03:26:19.064Z,1022.24
2019-04-20T03:27:16.222Z,1022.22
2019-04-20T03:28:21.926Z,1022.25
2019-04-20T03:29:11.374Z,1022.22
2019-04-20T03:31:00.963Z,1022.23
2019-04-20T03:31:45.164Z,1022.27
2019-04-20T03:32:56.123Z,1022.28
2019-04-20T03:33:38.891Z,1022.26
2019-04-20T03:35:37.506Z,1022.25
2019-04-20T03:36:25.924Z,1022.27
2019-04-20T03:37:27.906Z,1022.32
2019-04-20T03:38:17.315Z,1022.28
2019-04-20T03:39:13.853Z,1022.28
2019-04-20T03:40:16.175Z,1022.30
2019-04-20T03:41:08.374Z,1022.33
2019-04-20T03:41:58.784Z,1022.27
2019-04-20T03:42:57.150Z,1022.27
2019-04-20T03:44:04.127Z,1022.27
2019-04-20T03:45:04.102Z,1022.35
2019-04-20T03:46:04.188Z,1022.32
2019-04-20T03:47:01.265Z,1022.31
2019-04-20T03:48:10.266Z,1022.30
2019-04-20T03:49:17.168Z,1022.33
2019-04-20T03:50:18.574Z,1022.33
2019-04-20T03:51:23.603Z,1022.35
2019-04-20T03:52:13.227Z,1022.34
2019-04-20T03:53:19.157Z,1022.35
2019-04-20T03:54:13.808Z,1022.34
2019-04-20T03:55:18.757Z,1022.33
2019-04-20T03:56:24.898Z,1022.35
2019-04-20T03:57:21.244Z,1022.30
2019-04-20T03:58:18.542Z,1022.31
2019-04-20T03:59:11.708Z,1022.31
2019-04-20T04:00:16.202Z,1022.32
2019-04-20T04:01:19.789Z,1022.33
2019-04-20T04:03:45.887Z,1022.32
2019-04-20T04:04:25.194Z,1022.36
2019-04-20T04:05:13.970Z,1022.34
2019-04-20T04:06:11.841Z,1022.35
2019-04-20T04:07:01.094Z,1022.36
2019-04-20T04:08:06.174Z,1022.38
2019-04-20T04:09:12.187Z,1022.40
2019-04-20T04:10:14.421Z,1022.38
2019-04-20T04:11:17.501Z,1022.36
2019-04-20T04:12:09.160Z,1022.36
2019-04-20T04:12:58.907Z,1022.36
2019-04-20T04:13:58.756Z,1022.34
2019-04-20T04:14:58.005Z,1022.36
2019-04-20T04:16:03.268Z,1022.35
2019-04-20T04:17:01.269Z,1022.34
2019-04-20T04:18:07.538Z,1022.38
2019-04-20T04:19:07.819Z,1022.34
2019-04-20T04:20:06.432Z,1022.36
2019-04-20T04:21:03.598Z,1022.37
2019-04-20T04:22:08.889Z,1022.40
2019-04-20T04:23:15.001Z,1022.36
2019-04-20T04:24:10.750Z,1022.35
2019-04-20T04:25:13.170Z,1022.39
2019-04-20T04:26:20.386Z,1022.33
2019-04-20T04:27:09.424Z,1022.33
2019-04-20T04:28:13.773Z,1022.37
2019-04-20T04:29:13.786Z,1022.37
2019-04-20T04:30:14.869Z,1022.39
2019-04-20T04:31:16.484Z,1022.34
2019-04-20T04:32:33.254Z,1022.34
2019-04-20T04:33:44.501Z,1022.38
2019-04-20T04:34:20.577Z,1022.35
2019-04-20T04:35:13.795Z,1022.36
2019-04-20T04:36:15.292Z,1022.39
2019-04-20T04:37:16.344Z,1022.38
2019-04-20T04:38:23.663Z,1022.32
2019-04-20T04:39:22.849Z,1022.37
2019-04-20T04:40:27.812Z,1022.33
2019-04-20T04:41:32.053Z,1022.36
2019-04-20T04:42:22.536Z,1022.34
2019-04-20T04:43:22.204Z,1022.35
2019-04-20T04:44:16.202Z,1022.38
2019-04-20T04:45:04.901Z,1022.41
2019-04-20T04:45:59.518Z,1022.34
2019-04-20T04:47:04.386Z,1022.33
2019-04-20T04:47:59.827Z,1022.36
2019-04-20T04:49:08.850Z,1022.37
2019-04-20T04:50:07.484Z,1022.37
2019-04-20T04:51:03.412Z,1022.43
2019-04-20T04:52:05.659Z,1022.42
2019-04-20T04:53:07.590Z,1022.49
2019-04-20T04:54:10.173Z,1022.45
2019-04-20T04:55:12.146Z,1022.43
2019-04-20T04:56:05.415Z,1022.44
2019-04-20T04:56:59.137Z,1022.46
2019-04-20T04:58:00.198Z,1022.46
2019-04-20T04:59:00.282Z,1022.48
2019-04-20T04:59:59.495Z,1022.51
2019-04-20T05:01:05.688Z,1022.50
2019-04-20T05:02:00.494Z,1022.45
2019-04-20T05:03:03.845Z,1022.53
2019-04-20T05:04:23.000Z,1022.51
2019-04-20T05:05:21.422Z,1022.54
2019-04-20T05:06:19.679Z,1022.51
2019-04-20T05:07:12.598Z,1022.53
2019-04-20T05:08:10.223Z,1022.52
2019-04-20T05:09:03.293Z,1022.55
2019-04-20T05:10:00.983Z,1022.52
2019-04-20T05:11:00.633Z,1022.53
2019-04-20T05:12:07.254Z,1022.53
2019-04-20T05:13:00.742Z,1022.57
2019-04-20T05:14:05.188Z,1022.57
2019-04-20T05:15:08.010Z,1022.60
2019-04-20T05:16:13.573Z,1022.57
2019-04-20T05:17:15.308Z,1022.60
2019-04-20T05:18:18.088Z,1022.63
2019-04-20T05:19:38.418Z,1022.60
2019-04-20T05:20:17.133Z,1022.65
2019-04-20T05:21:21.892Z,1022.61
2019-04-20T05:22:19.371Z,1022.67
2019-04-20T05:23:12.695Z,1022.65
2019-04-20T05:24:20.759Z,1022.66
2019-04-20T05:25:21.332Z,1022.65
2019-04-20T05:26:20.338Z,1022.67
2019-04-20T05:27:23.071Z,1022.66
2019-04-20T05:28:14.653Z,1022.64
2019-04-20T05:29:08.472Z,1022.66
2019-04-20T05:30:01.284Z,1022.66
2019-04-20T05:31:03.573Z,1022.64
2019-04-20T05:32:07.846Z,1022.65
2019-04-20T05:33:07.785Z,1022.59
2019-04-20T05:34:45.409Z,1022.68
2019-04-20T05:35:24.202Z,1022.63
2019-04-20T05:36:20.528Z,1022.62
2019-04-20T05:37:29.639Z,1022.61
2019-04-20T05:38:24.025Z,1022.64
2019-04-20T05:39:26.925Z,1022.65
2019-04-20T05:40:22.332Z,1022.64
2019-04-20T05:41:17.402Z,1022.62
2019-04-20T05:42:25.843Z,1022.60
2019-04-20T05:43:20.570Z,1022.63
2019-04-20T05:44:19.603Z,1022.61
2019-04-20T05:45:16.681Z,1022.60
2019-04-20T05:46:21.144Z,1022.62
2019-04-20T05:47:21.442Z,1022.60
2019-04-20T05:48:16.366Z,1022.62
2019-04-20T05:49:24.352Z,1022.63
2019-04-20T05:50:16.605Z,1022.65
2019-04-20T05:51:26.802Z,1022.65
2019-04-20T05:53:22.163Z,1022.68
2019-04-20T05:54:23.680Z,1022.66
2019-04-20T05:55:21.025Z,1022.63
2019-04-20T05:56:28.962Z,1022.60
2019-04-20T05:57:25.061Z,1022.60
2019-04-20T05:58:24.659Z,1022.64
2019-04-20T05:59:19.149Z,1022.66
2019-04-20T06:00:32.033Z,1022.64
2019-04-20T06:01:26.014Z,1022.64
2019-04-20T06:02:25.049Z,1022.68
2019-04-20T06:03:23.363Z,1022.67
2019-04-20T06:04:28.397Z,1022.69
2019-04-20T06:05:23.977Z,1022.63
2019-04-20T06:06:22.069Z,1022.64
2019-04-20T06:07:25.279Z,1022.67
2019-04-20T06:08:32.053Z,1022.71
2019-04-20T06:09:23.112Z,1022.69
2019-04-20T06:10:29.036Z,1022.70
2019-04-20T06:11:24.037Z,1022.67
2019-04-20T06:12:20.078Z,1022.71
2019-04-20T06:13:18.691Z,1022.70
2019-04-20T06:14:11.407Z,1022.73
2019-04-20T06:15:18.435Z,1022.68
2019-04-20T06:16:18.654Z,1022.68
2019-04-20T06:17:21.042Z,1022.72
2019-04-20T06:18:16.307Z,1022.63
2019-04-20T06:19:35.497Z,1022.72
2019-04-20T06:20:19.796Z,1022.65
2019-04-20T06:21:33.798Z,1022.69
2019-04-20T06:22:28.472Z,1022.67
2019-04-20T06:23:29.923Z,1022.70
2019-04-20T06:24:24.901Z,1022.72
2019-04-20T06:25:40.874Z,1022.95
2019-04-20T06:27:25.888Z,1023.36
2019-04-20T06:28:19.736Z,1023.56
2019-04-20T06:29:18.292Z,1023.83
2019-04-20T06:30:18.885Z,1024.26
2019-04-20T06:31:28.205Z,1024.68
2019-04-20T06:32:27.149Z,1024.82
2019-04-20T06:33:30.875Z,1024.82
2019-04-20T06:34:30.273Z,1024.63
2019-04-20T06:35:35.053Z,1024.59
2019-04-20T06:36:29.446Z,1024.52
2019-04-20T06:37:23.225Z,1024.57
2019-04-20T06:38:46.619Z,1024.85
2019-04-20T06:39:24.089Z,1024.96
2019-04-20T06:40:37.171Z,1024.81
2019-04-20T06:41:37.921Z,1024.97
2019-04-20T06:42:18.034Z,1025.15
2019-04-20T06:43:19.665Z,1024.97
2019-04-20T06:44:30.361Z,1025.01
2019-04-20T06:45:28.330Z,1025.06
2019-04-20T06:46:25.308Z,1024.90
2019-04-20T06:47:27.335Z,1024.95
2019-04-20T06:48:32.299Z,1024.91
2019-04-20T06:49:30.914Z,1024.62
2019-04-20T06:50:18.581Z,1024.45
2019-04-20T06:51:25.084Z,1024.26
2019-04-20T06:53:34.537Z,1023.90
2019-04-20T06:54:12.455Z,1023.77
2019-04-20T06:55:19.711Z,1023.71
2019-04-20T06:56:24.994Z,1023.68
2019-04-20T06:57:27.049Z,1023.62
2019-04-20T06:58:39.145Z,1023.67
2019-04-20T06:59:27.703Z,1023.66
2019-04-20T07:00:26.075Z,1023.61
2019-04-20T07:01:24.938Z,1023.58
2019-04-20T07:02:29.883Z,1023.55
2019-04-20T07:03:37.560Z,1023.55
2019-04-20T07:04:38.942Z,1023.53
2019-04-20T07:06:43.500Z,1023.55
2019-04-20T07:07:23.892Z,1023.45
2019-04-20T07:08:44.628Z,1023.43
2019-04-20T07:09:33.938Z,1023.50
2019-04-20T07:10:28.530Z,1023.50
2019-04-20T07:11:23.893Z,1023.48
2019-04-20T07:12:23.991Z,1023.47
2019-04-20T07:13:17.730Z,1023.44
2019-04-20T07:14:09.956Z,1023.38
2019-04-20T07:15:21.377Z,1023.36
2019-04-20T07:16:21.635Z,1023.32
2019-04-20T07:17:32.945Z,1023.37
2019-04-20T07:18:29.848Z,1023.43
2019-04-20T07:19:24.879Z,1023.49
2019-04-20T07:20:21.321Z,1023.45
2019-04-20T07:21:41.708Z,1023.42
2019-04-20T07:22:32.084Z,1023.43
2019-04-20T07:23:28.169Z,1023.49
2019-04-20T07:24:25.181Z,1023.52
2019-04-20T07:25:24.452Z,1023.54
2019-04-20T07:26:32.212Z,1023.57
2019-04-20T07:29:27.218Z,1023.58
2019-04-20T07:30:27.620Z,1023.58
2019-04-20T07:31:24.673Z,1023.61
2019-04-20T07:32:21.098Z,1023.65
2019-04-20T07:33:30.324Z,1023.64
2019-04-20T07:34:22.932Z,1023.70
2019-04-20T07:35:24.825Z,1023.70
2019-04-20T07:36:32.712Z,1023.72
2019-04-20T07:37:51.486Z,1023.78
2019-04-20T07:38:30.894Z,1023.82
2019-04-20T07:39:28.022Z,1023.84
2019-04-20T07:40:24.643Z,1023.88
2019-04-20T07:41:33.041Z,1023.86
2019-04-20T07:42:29.364Z,1023.86
2019-04-20T07:43:25.455Z,1023.79
2019-04-20T07:44:37.627Z,1023.71
2019-04-20T07:46:40.715Z,1023.60
2019-04-20T07:47:34.486Z,1023.57
2019-04-20T07:48:33.802Z,1023.52
2019-04-20T07:49:27.491Z,1023.55
2019-04-20T07:50:18.614Z,1023.50
2019-04-20T07:51:13.705Z,1023.52
2019-04-20T07:52:04.417Z,1023.52
2019-04-20T07:53:20.393Z,1023.52
2019-04-20T07:54:28.285Z,1023.55
2019-04-20T07:56:27.017Z,1023.52
2019-04-20T07:57:27.245Z,1023.52
2019-04-20T07:58:15.880Z,1023.53
2019-04-20T07:59:19.080Z,1023.46
2019-04-20T08:00:35.562Z,1023.52
2019-04-20T08:01:32.873Z,1023.50
2019-04-20T08:02:32.358Z,1023.46
2019-04-20T08:03:24.683Z,1023.42
2019-04-20T08:04:24.589Z,1023.44
2019-04-20T08:05:22.004Z,1023.40
2019-04-20T08:06:11.595Z,1023.44
2019-04-20T08:07:09.196Z,1023.44
2019-04-20T08:09:20.742Z,1023.41
2019-04-20T08:10:09.984Z,1023.40
2019-04-20T08:11:23.153Z,1023.42
2019-04-20T08:12:34.037Z,1023.44
2019-04-20T08:13:32.018Z,1023.37
2019-04-20T08:14:30.232Z,1023.35
2019-04-20T08:15:36.706Z,1023.30
2019-04-20T08:16:31.078Z,1023.34
2019-04-20T08:17:30.955Z,1023.33
2019-04-20T08:18:49.892Z,1023.32
2019-04-20T08:19:25.748Z,1023.36
2019-04-20T08:20:29.665Z,1023.39
2019-04-20T08:21:32.859Z,1023.43
2019-04-20T08:22:27.077Z,1023.52
2019-04-20T08:23:38.843Z,1023.53
2019-04-20T08:24:22.938Z,1023.63
2019-04-20T08:25:17.839Z,1023.63
2019-04-20T08:26:14.067Z,1023.65
2019-04-20T08:27:09.148Z,1023.62
2019-04-20T08:28:15.391Z,1023.69
2019-04-20T08:29:17.971Z,1023.59
2019-04-20T08:30:24.992Z,1023.61
2019-04-20T08:31:21.887Z,1023.62
2019-04-20T08:32:22.850Z,1023.55
2019-04-20T08:33:24.442Z,1023.59
2019-04-20T08:34:32.026Z,1023.61
2019-04-20T08:35:31.875Z,1023.62
2019-04-20T08:36:26.974Z,1023.60
2019-04-20T08:37:25.332Z,1023.65
2019-04-20T08:40:46.319Z,1023.71
2019-04-20T08:41:48.626Z,1023.66
2019-04-20T08:42:57.249Z,1023.61
2019-04-20T08:43:54.230Z,1023.69
2019-04-20T08:45:48.459Z,1023.67
2019-04-20T08:46:54.778Z,1023.67
2019-04-20T08:48:03.761Z,1023.73
2019-04-20T08:48:46.678Z,1023.72
2019-04-20T08:49:52.600Z,1023.68
2019-04-20T08:50:46.789Z,1023.70
2019-04-20T08:51:53.769Z,1023.72
2019-04-20T08:53:07.195Z,1023.69
2019-04-20T08:53:45.071Z,1023.76
2019-04-20T08:54:39.167Z,1023.77
2019-04-20T08:55:43.828Z,1023.74
2019-04-20T08:56:34.898Z,1023.78
2019-04-20T08:57:24.775Z,1023.84
2019-04-20T08:58:24.827Z,1023.81
2019-04-20T08:59:25.435Z,1023.84
2019-04-20T09:00:33.351Z,1023.84
2019-04-20T09:01:30.352Z,1023.85
2019-04-20T09:02:25.825Z,1023.90
2019-04-20T09:12:11.890Z,1023.80
2019-04-20T09:13:05.733Z,1023.73
2019-04-20T09:13:58.728Z,1023.75
2019-04-20T09:14:50.877Z,1023.76
2019-04-20T09:15:51.342Z,1023.77
2019-04-20T09:16:59.177Z,1023.78
2019-04-20T09:17:56.901Z,1023.76
2019-04-20T09:18:57.875Z,1023.77
2019-04-20T09:20:49.881Z,1023.69
2019-04-20T09:21:50.259Z,1023.70
2019-04-20T09:24:58.676Z,1023.71
2019-04-20T09:26:59.125Z,1023.75
2019-04-20T09:28:30.916Z,1023.77
2019-04-20T09:29:33.597Z,1023.78
2019-04-20T09:30:34.898Z,1023.77
2019-04-20T09:32:40.159Z,1023.82
2019-04-20T09:33:43.960Z,1023.85
2019-04-20T09:34:41.897Z,1023.89
2019-04-20T09:35:38.961Z,1023.89
2019-04-20T09:36:32.470Z,1023.92
2019-04-20T09:37:44.710Z,1023.92
2019-04-20T09:38:34.835Z,1023.93
2019-04-20T09:39:30.475Z,1023.90
2019-04-20T09:40:40.242Z,1023.95
2019-04-20T09:41:41.140Z,1023.92
2019-04-20T09:42:22.176Z,1023.91
2019-04-20T09:43:23.769Z,1023.87
2019-04-20T09:44:32.647Z,1023.95
2019-04-20T09:45:30.542Z,1023.94
2019-04-20T09:46:22.303Z,1023.94
2019-04-20T09:47:27.424Z,1023.91
2019-04-20T09:48:32.000Z,1023.97
2019-04-20T09:49:37.819Z,1023.97
2019-04-20T09:50:37.655Z,1024.00
2019-04-20T09:51:40.253Z,1023.98
2019-04-20T09:52:45.729Z,1023.97
2019-04-20T09:53:35.707Z,1024.01
2019-04-20T09:54:41.646Z,1024.04
2019-04-20T09:55:33.782Z,1024.03
2019-04-20T09:56:38.778Z,1024.07
2019-04-20T09:57:37.856Z,1024.06
2019-04-20T09:58:37.672Z,1024.07
2019-04-20T09:59:45.139Z,1024.07
2019-04-20T10:00:37.178Z,1024.07
2019-04-20T10:01:31.174Z,1024.05
2019-04-20T10:02:27.828Z,1024.08
2019-04-20T10:03:22.769Z,1024.08
2019-04-20T10:04:23.959Z,1024.07
2019-04-20T10:05:23.316Z,1024.08
2019-04-20T10:06:27.293Z,1024.10
2019-04-20T10:07:26.133Z,1024.08
2019-04-20T10:08:23.921Z,1024.06
2019-04-20T10:09:28.004Z,1024.16
2019-04-20T10:10:31.786Z,1024.16
2019-04-20T10:11:23.624Z,1024.25
2019-04-20T10:12:24.116Z,1024.35
2019-04-20T10:13:23.153Z,1024.33
2019-04-20T10:14:24.720Z,1024.29
2019-04-20T10:15:26.306Z,1024.18
2019-04-20T10:16:23.840Z,1024.18
2019-04-20T10:17:23.608Z,1024.17
2019-04-20T10:18:23.769Z,1024.16
2019-04-20T10:19:29.791Z,1024.19
2019-04-20T10:21:23.657Z,1024.18
2019-04-20T10:23:24.867Z,1024.27
2019-04-20T10:24:24.413Z,1024.48
2019-04-20T10:25:24.527Z,1024.59
2019-04-20T10:26:24.771Z,1024.67
2019-04-20T10:29:23.803Z,1024.56
2019-04-20T10:30:24.015Z,1024.59
2019-04-20T10:31:24.548Z,1024.45
2019-04-20T10:32:31.123Z,1024.33
2019-04-20T10:33:24.131Z,1024.48
2019-04-20T10:35:36.621Z,1025.05
2019-04-20T10:36:37.582Z,1025.31
2019-04-20T10:37:37.736Z,1025.67
2019-04-20T10:38:37.719Z,1025.80
2019-04-20T10:39:36.758Z,1025.76
2019-04-20T10:40:47.318Z,1025.75
2019-04-20T10:41:45.179Z,1025.98
2019-04-20T10:43:36.912Z,1026.06
2019-04-20T10:44:37.014Z,1026.05
2019-04-20T10:45:37.023Z,1026.27
2019-04-20T10:46:37.025Z,1026.50
2019-04-20T10:47:37.207Z,1026.39
2019-04-20T10:48:41.599Z,1026.16
2019-04-20T10:49:38.362Z,1026.10
2019-04-20T10:50:37.181Z,1025.96
2019-04-20T10:51:37.845Z,1025.95
2019-04-20T10:52:38.119Z,1025.90
2019-04-20T10:53:38.316Z,1025.90
2019-04-20T10:54:38.493Z,1025.70
2019-04-20T10:56:21.257Z,1025.31
2019-04-20T10:57:19.975Z,1025.12
2019-04-20T10:58:20.012Z,1025.05
2019-04-20T10:59:21.426Z,1025.00
2019-04-20T11:00:20.093Z,1024.84
2019-04-20T11:01:20.129Z,1024.73
2019-04-20T11:03:20.208Z,1024.46
2019-04-20T11:04:21.259Z,1024.28
2019-04-20T11:05:20.425Z,1024.38
2019-04-20T11:06:20.615Z,1024.29
2019-04-20T11:07:20.780Z,1024.30
2019-04-20T11:08:20.489Z,1024.26
2019-04-20T11:09:20.697Z,1024.15
2019-04-20T11:10:25.729Z,1024.07
2019-04-20T11:11:26.485Z,1024.05
2019-04-20T11:13:21.417Z,1023.98
2019-04-20T11:14:26.303Z,1024.05
2019-04-20T11:15:20.997Z,1024.03
2019-04-20T11:16:20.721Z,1024.07
2019-04-20T11:17:20.752Z,1024.09
2019-04-20T11:18:21.781Z,1024.05
2019-04-20T11:20:21.446Z,1024.11
2019-04-20T11:21:21.833Z,1024.09
2019-04-20T11:22:22.135Z,1024.13
2019-04-20T11:23:22.359Z,1024.17
2019-04-20T11:24:22.421Z,1024.19
2019-04-20T11:25:22.072Z,1024.22
2019-04-20T11:26:22.083Z,1024.13
2019-04-20T11:27:22.463Z,1024.21
2019-04-20T11:28:21.953Z,1024.24
2019-04-20T11:29:22.215Z,1024.24
2019-04-20T11:30:22.475Z,1024.27
2019-04-20T11:31:22.000Z,1024.19
2019-04-20T11:32:22.214Z,1024.10
2019-04-20T11:33:22.382Z,1024.03
2019-04-20T11:34:27.776Z,1024.02
2019-04-20T11:35:28.096Z,1023.99
2019-04-20T11:36:21.503Z,1023.98
2019-04-20T11:37:21.546Z,1023.91
2019-04-20T11:38:22.023Z,1023.78
2019-04-20T11:39:22.821Z,1023.76
2019-04-20T11:40:21.660Z,1023.65
2019-04-20T11:41:26.168Z,1023.56
2019-04-20T11:42:21.803Z,1023.47
2019-04-20T11:43:21.880Z,1023.37
2019-04-20T11:44:21.817Z,1023.25
2019-04-20T11:45:22.573Z,1023.10
2019-04-20T11:46:22.810Z,1022.96
2019-04-20T11:47:21.935Z,1022.84
2019-04-20T11:48:23.131Z,1022.71
2019-04-20T11:49:22.012Z,1022.61
2019-04-20T11:50:22.053Z,1022.50
2019-04-20T11:51:23.274Z,1022.50
2019-04-20T11:52:23.720Z,1022.49
2019-04-20T11:53:25.264Z,1022.52
2019-04-20T11:54:22.208Z,1022.62
2019-04-20T11:55:22.443Z,1022.71
2019-04-20T11:56:28.042Z,1022.70
2019-04-20T11:57:22.323Z,1022.82
2019-04-20T11:58:22.363Z,1022.82
2019-04-20T11:59:23.134Z,1022.83
2019-04-20T12:00:25.128Z,1022.82
2019-04-20T12:01:30.187Z,1022.80
2019-04-20T12:02:30.124Z,1022.81
2019-04-20T12:03:29.798Z,1022.89
2019-04-20T12:04:33.750Z,1022.83
2019-04-20T12:05:33.313Z,1022.87
2019-04-20T12:06:23.157Z,1022.89
2019-04-20T12:07:22.708Z,1022.91
2019-04-20T12:08:23.007Z,1022.91
2019-04-20T12:09:22.785Z,1022.92
2019-04-20T12:10:25.607Z,1022.97
2019-04-20T12:11:32.077Z,1022.98
2019-04-20T12:12:32.699Z,1022.96
2019-04-20T12:13:22.939Z,1022.99
2019-04-20T12:14:22.998Z,1022.91
2019-04-20T12:15:24.368Z,1022.90
2019-04-20T12:16:23.617Z,1022.98
2019-04-20T12:17:23.766Z,1023.02
2019-04-20T12:18:23.453Z,1023.04
2019-04-20T12:19:23.175Z,1022.95
2019-04-20T12:20:26.968Z,1022.97
2019-04-20T12:22:24.125Z,1022.93
2019-04-20T12:23:24.482Z,1022.89
2019-04-20T12:24:24.581Z,1022.93
2019-04-20T12:25:23.731Z,1022.89
2019-04-20T12:26:24.685Z,1022.94
2019-04-20T12:27:24.885Z,1022.91
2019-04-20T12:28:23.521Z,1022.89
2019-04-20T12:29:23.810Z,1022.93
2019-04-20T12:30:23.955Z,1022.89
2019-04-20T12:31:26.936Z,1022.93
2019-04-20T12:32:29.589Z,1022.90
2019-04-20T12:33:24.379Z,1022.91
2019-04-20T12:34:24.534Z,1022.91
2019-04-20T12:35:24.483Z,1022.89
2019-04-20T12:36:23.974Z,1022.83
2019-04-20T12:37:25.052Z,1022.81
2019-04-20T12:38:25.188Z,1022.86
2019-04-20T12:39:24.909Z,1022.82
2019-04-20T12:40:24.088Z,1022.79
2019-04-20T12:41:34.470Z,1022.77
2019-04-20T12:42:25.246Z,1022.73
2019-04-20T12:43:24.088Z,1022.71
2019-04-20T12:44:24.128Z,1022.79
2019-04-20T12:45:24.164Z,1022.80
2019-04-20T12:46:25.187Z,1022.74
2019-04-20T12:47:24.252Z,1022.75
2019-04-20T12:48:24.279Z,1022.75
2019-04-20T12:49:25.409Z,1022.77
2019-04-20T12:50:25.579Z,1022.75